College Station, Texas
Current Conditions -  °F | °C
As of 11:53 PM on Sunday 23 Nov 2014 (Local Time) from KCLL Reporting Station
Clear Clear  
Wind Chill: 57°   Ceiling: Unl
Heat Index: 57°   Visibility: 10mi
Dew Point: 41°   Wind: 17mph
Humidity: 55%   Direction: 330°NNW
Pressure: 29.82"   Gusts: 24mph
Location:  30.62°N, 96.32°W
Report Text: KCLL 240553Z AUTO 33015G21KT 10SM CLR 14/05 A2982 RMK AO2 PK WND 34027/0454 SLP094 T01390050 10206 20139 402610139 51051 $
Loading
Personal Weather Stations






























Interactive Weather Map New forecast layout! Learn more

10-Day Weather Forecast

Advertisements
Track Severe Weather on mobile